Time;durP1;ratioP1;P1;durP2;ratioP2;P2;SDS_P1;SDS_P2;PMS_P1;PMS_P2;Temp;Humidity;BMP_temperature;BMP_pressure;BME280_temperature;BME280_humidity;BME280_pressure;Samples;Min_cycle;Max_cycle;Signal;HPM_P1;HPM_P2
2022/01/29 00:00:45;;;;;;;0.00;0.00;;;;;19.10;100504.00;;;;5083407;28;20052;-74
2022/01/29 00:03:15;;;;;;;0.00;0.00;;;;;18.90;100495.00;;;;5078276;28;20101;-78
2022/01/29 00:05:44;;;;;;;0.00;0.00;;;;;19.10;100497.00;;;;5070363;28;20048;-76
2022/01/29 00:08:13;;;;;;;0.00;0.00;;;;;19.20;100498.00;;;;5069872;28;20417;-76
2022/01/29 00:10:45;;;;;;;0.00;0.00;;;;;19.00;100495.00;;;;5069444;28;20047;-77
2022/01/29 00:13:15;;;;;;;0.00;0.00;;;;;18.90;100508.00;;;;5069767;28;20051;-75
2022/01/29 00:15:44;;;;;;;0.00;0.00;;;;;18.90;100497.00;;;;5069725;28;20044;-76
2022/01/29 00:18:14;;;;;;;0.00;0.00;;;;;18.80;100500.00;;;;5069129;28;20053;-75
2022/01/29 00:20:44;;;;;;;0.00;0.00;;;;;18.90;100517.00;;;;5069365;28;20044;-76
2022/01/29 00:23:13;;;;;;;0.00;0.00;;;;;18.80;100507.00;;;;5070085;28;20029;-77
2022/01/29 00:25:43;;;;;;;0.00;0.00;;;;;18.70;100509.00;;;;5069836;28;20049;-76
2022/01/29 00:28:14;;;;;;;0.00;0.00;;;;;18.70;100517.00;;;;5069525;28;20045;-77
2022/01/29 00:30:44;;;;;;;0.00;0.00;;;;;18.80;100498.00;;;;5069148;28;20040;-77
2022/01/29 00:33:15;;;;;;;0.00;0.00;;;;;18.70;100517.00;;;;5070313;28;20143;-76
2022/01/29 00:35:44;;;;;;;0.00;0.00;;;;;18.60;100513.00;;;;5069280;28;20045;-76
2022/01/29 00:38:14;;;;;;;0.00;0.00;;;;;18.70;100504.00;;;;5067802;28;20057;-76
2022/01/29 00:40:45;;;;;;;0.00;0.00;;;;;18.90;100517.00;;;;5066235;28;20048;-76
2022/01/29 00:43:14;;;;;;;;;;;;;18.70;100524.00;;;;5069278;28;20057;-76
2022/01/29 00:45:43;;;;;;;0.00;0.00;;;;;18.60;100523.00;;;;5068788;28;19920;-76
2022/01/29 00:48:13;;;;;;;0.00;0.00;;;;;18.50;100530.00;;;;5068643;28;20040;-76
2022/01/29 00:50:42;;;;;;;0.00;0.00;;;;;18.50;100522.00;;;;5067960;28;20063;-76
2022/01/29 00:53:12;;;;;;;0.00;0.00;;;;;18.50;100530.00;;;;5069487;28;20052;-76
2022/01/29 00:55:41;;;;;;;0.00;0.00;;;;;18.30;100526.00;;;;5069003;28;20044;-76
2022/01/29 00:58:11;;;;;;;0.00;0.00;;;;;18.20;100523.00;;;;5068437;28;20094;-76
2022/01/29 01:00:40;;;;;;;0.00;0.00;;;;;18.20;100534.00;;;;5068905;28;20043;-76
2022/01/29 01:03:10;;;;;;;0.00;0.00;;;;;18.10;100524.00;;;;5069200;28;20484;-76
2022/01/29 01:05:39;;;;;;;0.00;0.00;;;;;18.00;100530.00;;;;5069258;28;20051;-76
2022/01/29 01:08:10;;;;;;;0.00;0.00;;;;;18.00;100519.00;;;;5068810;28;20056;-77
2022/01/29 01:10:40;;;;;;;0.00;0.00;;;;;17.90;100521.00;;;;5067825;28;20111;-75
2022/01/29 01:13:10;;;;;;;0.00;0.00;;;;;17.80;100504.00;;;;5069969;28;20044;-75
2022/01/29 01:15:39;;;;;;;0.00;0.00;;;;;17.90;100518.00;;;;5068854;28;20497;-75
2022/01/29 01:18:09;;;;;;;0.00;0.00;;;;;17.80;100499.00;;;;5067902;28;20579;-74
2022/01/29 01:20:38;;;;;;;0.00;0.00;;;;;17.90;100526.00;;;;5068842;28;20052;-75
2022/01/29 01:23:07;;;;;;;0.00;0.00;;;;;18.20;100504.00;;;;5068719;28;20040;-75
2022/01/29 01:25:37;;;;;;;0.00;0.00;;;;;18.40;100509.00;;;;5068747;28;20044;-75
2022/01/29 01:28:07;;;;;;;0.00;0.00;;;;;18.40;100519.00;;;;5068806;28;20056;-77
2022/01/29 01:30:36;;;;;;;0.00;0.00;;;;;18.50;100519.00;;;;5068499;28;20055;-76
2022/01/29 01:33:06;;;;;;;0.00;0.00;;;;;18.60;100512.00;;;;5068807;28;20056;-75
2022/01/29 01:35:44;;;;;;;0.00;0.00;;;;;18.60;100518.00;;;;5068320;28;20044;-75
2022/01/29 01:38:22;;;;;;;;;;;;;;;;;;;;;
2022/01/29 01:40:52;;;;;;;0.00;0.00;;;;;18.40;100517.00;;;;5068363;28;20036;-75
2022/01/29 01:43:22;;;;;;;0.00;0.00;;;;;18.30;100509.00;;;;5067904;28;20044;-75
2022/01/29 01:45:52;;;;;;;0.00;0.00;;;;;18.20;100517.00;;;;5068028;28;20062;-75
2022/01/29 01:48:22;;;;;;;0.00;0.00;;;;;18.10;100525.00;;;;5068555;28;20051;-75
2022/01/29 01:50:52;;;;;;;0.00;0.00;;;;;17.90;100512.00;;;;5068277;28;20713;-75
2022/01/29 01:53:22;;;;;;;0.00;0.00;;;;;17.80;100503.00;;;;5068053;28;20056;-74
2022/01/29 01:55:52;;;;;;;0.00;0.00;;;;;17.60;100506.00;;;;5068209;28;20817;-75
2022/01/29 01:58:21;;;;;;;0.00;0.00;;;;;17.50;100505.00;;;;5067875;28;20052;-75
2022/01/29 02:00:51;;;;;;;0.00;0.00;;;;;17.40;100512.00;;;;5067837;28;20083;-75
2022/01/29 02:03:23;;;;;;;0.00;0.00;;;;;17.30;100498.00;;;;5067823;28;20051;-75
2022/01/29 02:05:53;;;;;;;0.00;0.00;;;;;17.20;100504.00;;;;5067800;28;20442;-75
2022/01/29 02:08:23;;;;;;;0.00;0.00;;;;;17.40;100509.00;;;;5067399;28;20060;-75
2022/01/29 02:10:52;;;;;;;0.00;0.00;;;;;17.30;100504.00;;;;5067380;28;20048;-76
2022/01/29 02:13:22;;;;;;;0.00;0.00;;;;;17.30;100501.00;;;;5067863;28;20052;-76
2022/01/29 02:15:52;;;;;;;0.00;0.00;;;;;17.20;100496.00;;;;5067430;28;20067;-76
2022/01/29 02:18:22;;;;;;;0.00;0.00;;;;;17.20;100491.00;;;;5068323;28;20047;-75
2022/01/29 02:20:53;;;;;;;0.00;0.00;;;;;17.10;100492.00;;;;5067921;28;20052;-76
2022/01/29 02:23:23;;;;;;;0.00;0.00;;;;;17.00;100503.00;;;;5067693;28;20723;-75
2022/01/29 02:25:54;;;;;;;0.00;0.00;;;;;16.90;100486.00;;;;5067575;28;20048;-75
2022/01/29 02:28:24;;;;;;;0.00;0.00;;;;;16.80;100491.00;;;;5067514;28;20047;-75
2022/01/29 02:31:00;;;;;;;0.00;0.00;;;;;16.70;100493.00;;;;5067422;28;20047;-76
2022/01/29 02:33:35;;;;;;;0.00;0.00;;;;;16.70;100487.00;;;;5067280;28;20515;-75
2022/01/29 02:36:06;;;;;;;0.00;0.00;;;;;16.60;100501.00;;;;5066787;28;20045;-76
2022/01/29 02:38:35;;;;;;;0.00;0.00;;;;;16.60;100491.00;;;;5067321;28;20049;-75
2022/01/29 02:41:06;;;;;;;0.00;0.00;;;;;16.50;100483.00;;;;5066386;28;20584;-75
2022/01/29 02:43:48;;;;;;;0.00;0.00;;;;;16.50;100499.00;;;;5065272;28;20052;-76
2022/01/29 02:48:52;;;;;;;0.00;0.00;;;;;16.50;100503.00;;;;5065951;28;20044;-76
2022/01/29 02:51:22;;;;;;;0.00;0.00;;;;;16.50;100490.00;;;;5066991;28;20041;-75
2022/01/29 02:53:52;;;;;;;0.00;0.00;;;;;16.50;100485.00;;;;5067175;28;20055;-75
2022/01/29 02:56:22;;;;;;;0.00;0.00;;;;;16.40;100486.00;;;;5067016;28;20055;-75
2022/01/29 02:58:51;;;;;;;0.00;0.00;;;;;16.40;100484.00;;;;5066388;28;20055;-76
2022/01/29 03:01:20;;;;;;;0.00;0.00;;;;;16.40;100472.00;;;;5067219;28;20453;-75
2022/01/29 03:03:50;;;;;;;0.10;0.10;;;;;16.40;100474.00;;;;5066869;28;20115;-76
2022/01/29 03:06:19;;;;;;;0.00;0.00;;;;;16.30;100476.00;;;;5065658;28;20477;-75
2022/01/29 03:08:49;;;;;;;0.00;0.00;;;;;16.40;100478.00;;;;5067340;28;20053;-75
2022/01/29 03:11:22;;;;;;;0.00;0.00;;;;;16.40;100468.00;;;;5066423;28;20057;-75
2022/01/29 03:13:53;;;;;;;0.00;0.00;;;;;16.30;100459.00;;;;5065978;28;20046;-75
2022/01/29 03:16:23;;;;;;;0.00;0.00;;;;;16.30;100469.00;;;;5067012;28;20048;-75
2022/01/29 03:18:52;;;;;;;0.00;0.00;;;;;16.30;100463.00;;;;5066555;28;20048;-75
2022/01/29 03:21:22;;;;;;;0.00;0.00;;;;;16.20;100481.00;;;;5065137;28;20063;-75
2022/01/29 03:23:51;;;;;;;0.00;0.00;;;;;16.20;100469.00;;;;5066260;28;20032;-75
2022/01/29 03:26:21;;;;;;;0.00;0.00;;;;;16.20;100467.00;;;;5066839;28;20040;-75
2022/01/29 03:28:50;;;;;;;0.00;0.00;;;;;16.20;100471.00;;;;5066626;28;20051;-76
2022/01/29 03:31:20;;;;;;;0.00;0.00;;;;;16.20;100455.00;;;;5066680;28;20037;-75
2022/01/29 03:33:51;;;;;;;0.00;0.00;;;;;16.20;100460.00;;;;5066805;28;20071;-75
2022/01/29 03:36:20;;;;;;;0.00;0.00;;;;;16.20;100453.00;;;;5066120;28;20051;-76
2022/01/29 03:38:50;;;;;;;0.00;0.00;;;;;16.20;100451.00;;;;5066388;28;20074;-76
2022/01/29 03:41:20;;;;;;;0.00;0.00;;;;;16.10;100457.00;;;;5066293;28;20040;-75
2022/01/29 03:43:52;;;;;;;0.70;0.70;;;;;16.00;100442.00;;;;5064732;28;20143;-76
2022/01/29 03:46:22;;;;;;;0.00;0.00;;;;;16.00;100438.00;;;;5066387;28;20127;-76
2022/01/29 03:48:52;;;;;;;0.00;0.00;;;;;16.00;100438.00;;;;5064315;28;20040;-75
2022/01/29 03:51:21;;;;;;;0.00;0.00;;;;;16.00;100440.00;;;;5066514;28;20041;-76
2022/01/29 03:53:51;;;;;;;0.10;0.10;;;;;16.00;100436.00;;;;5066444;28;20123;-75
2022/01/29 03:56:21;;;;;;;0.00;0.00;;;;;16.00;100439.00;;;;5066888;28;20120;-75
2022/01/29 03:58:50;;;;;;;0.00;0.00;;;;;16.00;100445.00;;;;5066046;28;20602;-75
2022/01/29 04:01:20;;;;;;;0.00;0.00;;;;;16.00;100423.00;;;;5065714;28;20424;-75
2022/01/29 04:03:49;;;;;;;0.00;0.00;;;;;15.90;100434.00;;;;5066242;28;20072;-76
2022/01/29 04:06:19;;;;;;;0.00;0.00;;;;;15.90;100415.00;;;;5066373;28;20041;-76
2022/01/29 04:08:48;;;;;;;0.13;0.13;;;;;15.90;100404.00;;;;5066140;28;20057;-75
2022/01/29 04:11:18;;;;;;;1.30;0.32;;;;;15.90;100433.00;;;;5066411;28;20032;-76
2022/01/29 04:13:48;;;;;;;0.10;0.10;;;;;15.80;100411.00;;;;5065934;28;20053;-75
2022/01/29 04:16:18;;;;;;;1.35;1.00;;;;;15.80;100429.00;;;;5066343;28;20056;-75
2022/01/29 04:18:47;;;;;;;0.00;0.00;;;;;15.70;100417.00;;;;5066573;28;20032;-75
2022/01/29 04:21:17;;;;;;;0.00;0.00;;;;;15.60;100428.00;;;;5066380;28;20059;-76
2022/01/29 04:23:46;;;;;;;0.00;0.00;;;;;15.60;100423.00;;;;5066486;28;20048;-75
2022/01/29 04:26:16;;;;;;;0.00;0.00;;;;;15.60;100424.00;;;;5067994;28;20515;-76
2022/01/29 04:28:46;;;;;;;0.00;0.00;;;;;15.60;100417.00;;;;5069755;28;20047;-76
2022/01/29 04:31:18;;;;;;;0.00;0.00;;;;;15.60;100431.00;;;;5069974;28;20404;-76
2022/01/29 04:33:48;;;;;;;0.00;0.00;;;;;15.60;100424.00;;;;5069653;28;20048;-76
2022/01/29 04:36:19;;;;;;;0.00;0.00;;;;;15.50;100410.00;;;;5069505;28;20542;-76
2022/01/29 04:38:48;;;;;;;0.00;0.00;;;;;15.50;100410.00;;;;5069179;28;20094;-76
2022/01/29 04:41:17;;;;;;;0.00;0.00;;;;;15.50;100416.00;;;;5069659;28;20063;-76
2022/01/29 04:43:47;;;;;;;0.00;0.00;;;;;15.50;100424.00;;;;5068033;28;20052;-76
2022/01/29 04:46:16;;;;;;;0.00;0.00;;;;;15.50;100409.00;;;;5070014;28;20071;-76
2022/01/29 04:48:46;;;;;;;0.00;0.00;;;;;15.40;100411.00;;;;5069148;28;20048;-76
2022/01/29 04:51:15;;;;;;;0.00;0.00;;;;;15.40;100411.00;;;;5067797;28;20131;-76
2022/01/29 04:53:45;;;;;;;0.00;0.00;;;;;15.30;100405.00;;;;5069701;28;20518;-76
2022/01/29 04:56:14;;;;;;;0.00;0.00;;;;;15.30;100405.00;;;;5068268;28;20048;-76
2022/01/29 04:58:44;;;;;;;0.00;0.00;;;;;15.30;100388.00;;;;5069243;28;20082;-76
2022/01/29 05:01:13;;;;;;;0.00;0.00;;;;;15.30;100398.00;;;;5069134;28;20504;-75
2022/01/29 05:03:43;;;;;;;0.00;0.00;;;;;15.30;100386.00;;;;5068824;28;20044;-76
2022/01/29 05:06:13;;;;;;;0.00;0.00;;;;;15.30;100386.00;;;;5067713;28;20530;-76
2022/01/29 05:08:42;;;;;;;0.00;0.00;;;;;15.30;100393.00;;;;5069594;28;20076;-75
2022/01/29 05:11:14;;;;;;;0.00;0.00;;;;;15.30;100376.00;;;;5069097;28;20055;-76
2022/01/29 05:13:44;;;;;;;0.00;0.00;;;;;15.30;100385.00;;;;5069119;28;20068;-76
2022/01/29 05:16:35;;;;;;;0.00;0.00;;;;;15.30;100391.00;;;;5068954;28;20423;-75
2022/01/29 05:27:29;;;;;;;0.00;0.00;;;;;15.30;100379.00;;;;5068777;28;20489;-76
2022/01/29 05:29:58;;;;;;;0.00;0.00;;;;;15.20;100377.00;;;;5068756;28;20567;-76
2022/01/29 05:32:27;;;;;;;0.00;0.00;;;;;15.20;100375.00;;;;5067722;28;20053;-75
2022/01/29 05:34:57;;;;;;;0.00;0.00;;;;;15.20;100373.00;;;;5068475;28;20044;-76
2022/01/29 05:37:41;;;;;;;0.00;0.00;;;;;15.20;100371.00;;;;5067531;28;20041;-76
2022/01/29 05:40:10;;;;;;;0.00;0.00;;;;;15.20;100380.00;;;;5068756;28;20045;-75
2022/01/29 05:42:40;;;;;;;0.00;0.00;;;;;15.30;100381.00;;;;5068409;28;20071;-76
2022/01/29 05:45:09;;;;;;;0.00;0.00;;;;;15.30;100373.00;;;;5068297;28;20044;-76
2022/01/29 05:47:40;;;;;;;0.00;0.00;;;;;15.20;100369.00;;;;5068448;28;20148;-76
2022/01/29 05:50:10;;;;;;;0.00;0.00;;;;;15.30;100378.00;;;;5067086;28;20094;-76
2022/01/29 05:52:40;;;;;;;0.00;0.00;;;;;15.30;100377.00;;;;5067964;28;20064;-76
2022/01/29 05:55:09;;;;;;;0.13;0.13;;;;;15.40;100387.00;;;;5067194;28;20053;-75
2022/01/29 05:57:39;;;;;;;0.00;0.00;;;;;15.40;100372.00;;;;5068586;28;20044;-76
2022/01/29 06:00:09;;;;;;;1.00;1.00;;;;;15.40;100381.00;;;;5067636;28;20429;-76
2022/01/29 06:02:44;;;;;;;0.00;0.00;;;;;15.30;100371.00;;;;5067571;28;20530;-76
2022/01/29 06:05:14;;;;;;;0.00;0.00;;;;;15.30;100373.00;;;;5066713;28;20048;-76
2022/01/29 06:07:43;;;;;;;0.00;0.00;;;;;15.30;100376.00;;;;5067625;28;20062;-76
2022/01/29 06:10:13;;;;;;;0.00;0.00;;;;;15.30;100373.00;;;;5067986;28;20750;-76
2022/01/29 06:12:42;;;;;;;0.00;0.00;;;;;15.40;100368.00;;;;5067403;28;20048;-76
2022/01/29 06:15:13;;;;;;;0.00;0.00;;;;;15.40;100359.00;;;;5067858;28;20070;-76
2022/01/29 06:17:42;;;;;;;0.00;0.00;;;;;15.40;100368.00;;;;5067965;28;20040;-76
2022/01/29 06:20:11;;;;;;;0.00;0.00;;;;;15.30;100361.00;;;;5067477;28;20048;-76
2022/01/29 06:22:42;;;;;;;0.00;0.00;;;;;15.40;100380.00;;;;5067323;28;20051;-76
2022/01/29 06:25:12;;;;;;;0.00;0.00;;;;;15.40;100377.00;;;;5065875;28;20052;-76
2022/01/29 06:27:41;;;;;;;0.00;0.00;;;;;15.40;100374.00;;;;5067538;28;20048;-76
2022/01/29 06:30:11;;;;;;;0.00;0.00;;;;;15.20;100381.00;;;;5067459;28;20047;-76
2022/01/29 06:32:40;;;;;;;0.00;0.00;;;;;15.20;100374.00;;;;5067300;28;20173;-76
2022/01/29 06:35:11;;;;;;;0.00;0.00;;;;;15.20;100368.00;;;;5067319;28;20040;-76
2022/01/29 06:37:41;;;;;;;0.00;0.00;;;;;15.10;100368.00;;;;5067359;28;20055;-76
2022/01/29 06:40:11;;;;;;;0.00;0.00;;;;;15.10;100369.00;;;;5067135;28;20529;-76
2022/01/29 06:42:41;;;;;;;0.00;0.00;;;;;15.10;100371.00;;;;5066224;28;20851;-75
2022/01/29 06:45:10;;;;;;;0.00;0.00;;;;;15.10;100389.00;;;;5067358;28;20416;-76
2022/01/29 06:47:39;;;;;;;0.00;0.00;;;;;15.10;100379.00;;;;5067320;28;20040;-76
2022/01/29 06:50:09;;;;;;;0.00;0.00;;;;;15.10;100383.00;;;;5066104;28;20441;-76
2022/01/29 06:52:39;;;;;;;0.00;0.00;;;;;15.00;100371.00;;;;5067172;28;20396;-76
2022/01/29 06:55:09;;;;;;;0.00;0.00;;;;;15.10;100384.00;;;;5066624;28;20530;-76
2022/01/29 06:57:38;;;;;;;0.00;0.00;;;;;15.00;100384.00;;;;5066949;28;20049;-76
2022/01/29 07:00:28;;;;;;;0.00;0.00;;;;;15.00;100373.00;;;;5066429;28;20044;-76
2022/01/29 07:02:58;;;;;;;0.00;0.00;;;;;15.00;100376.00;;;;5067352;28;20052;-76
2022/01/29 07:05:28;;;;;;;0.00;0.00;;;;;14.90;100367.00;;;;5067054;28;20055;-75
2022/01/29 07:07:57;;;;;;;0.00;0.00;;;;;14.90;100370.00;;;;5067311;28;20063;-76
2022/01/29 07:10:27;;;;;;;0.00;0.00;;;;;14.90;100368.00;;;;5066629;28;20048;-76
2022/01/29 07:12:56;;;;;;;0.00;0.00;;;;;15.00;100370.00;;;;5066669;28;20040;-76
2022/01/29 07:15:25;;;;;;;0.00;0.00;;;;;14.90;100369.00;;;;5066146;28;20504;-76
2022/01/29 07:17:55;;;;;;;0.00;0.00;;;;;14.90;100373.00;;;;5066952;28;20051;-76
2022/01/29 07:20:24;;;;;;;0.00;0.00;;;;;15.00;100363.00;;;;5065840;28;20048;-76
2022/01/29 07:22:54;;;;;;;0.00;0.00;;;;;15.00;100386.00;;;;5066375;28;20044;-76
2022/01/29 07:25:25;;;;;;;0.00;0.00;;;;;15.00;100364.00;;;;5065366;28;20515;-76
2022/01/29 07:27:55;;;;;;;0.00;0.00;;;;;15.00;100373.00;;;;5066299;28;20051;-75
2022/01/29 07:30:25;;;;;;;0.00;0.00;;;;;15.00;100377.00;;;;5067194;28;20040;-76
2022/01/29 07:32:54;;;;;;;0.00;0.00;;;;;15.00;100367.00;;;;5066413;28;20115;-76
2022/01/29 07:35:24;;;;;;;0.00;0.00;;;;;15.00;100365.00;;;;5066516;28;20101;-76
2022/01/29 07:37:53;;;;;;;0.00;0.00;;;;;14.90;100375.00;;;;5066222;28;20051;-76
2022/01/29 07:40:23;;;;;;;0.00;0.00;;;;;14.90;100366.00;;;;5066638;28;20401;-76
2022/01/29 07:42:52;;;;;;;0.00;0.00;;;;;15.00;100371.00;;;;5066887;28;20032;-76
2022/01/29 07:45:22;;;;;;;0.00;0.00;;;;;14.90;100386.00;;;;5064989;28;20056;-76
2022/01/29 07:47:52;;;;;;;0.00;0.00;;;;;14.80;100377.00;;;;5066550;28;20045;-76
2022/01/29 07:50:21;;;;;;;0.00;0.00;;;;;14.80;100371.00;;;;5065821;28;20044;-76
2022/01/29 07:52:50;;;;;;;0.00;0.00;;;;;14.80;100384.00;;;;5068046;28;20036;-76
2022/01/29 07:55:20;;;;;;;0.00;0.00;;;;;14.80;100386.00;;;;5066457;28;20032;-76
2022/01/29 07:57:50;;;;;;;0.00;0.00;;;;;14.80;100366.00;;;;5066166;28;20416;-76
2022/01/29 08:00:19;;;;;;;0.00;0.00;;;;;14.80;100382.00;;;;5066666;28;20044;-76
2022/01/29 08:02:49;;;;;;;0.00;0.00;;;;;14.70;100378.00;;;;5070316;28;20060;-76
2022/01/29 08:05:18;;;;;;;0.00;0.00;;;;;14.70;100379.00;;;;5070350;28;20080;-77
2022/01/29 08:07:48;;;;;;;0.00;0.00;;;;;14.80;100386.00;;;;5069997;28;20045;-75
2022/01/29 08:10:18;;;;;;;0.00;0.00;;;;;14.80;100381.00;;;;5070200;28;20052;-76
2022/01/29 08:12:47;;;;;;;0.00;0.00;;;;;14.70;100395.00;;;;5070300;28;20055;-76
2022/01/29 08:15:17;;;;;;;0.00;0.00;;;;;14.70;100383.00;;;;5070626;28;20507;-76
2022/01/29 08:17:46;;;;;;;0.00;0.00;;;;;14.60;100400.00;;;;5070473;28;20049;-75
2022/01/29 08:20:15;;;;;;;0.00;0.00;;;;;14.60;100387.00;;;;5070062;28;20516;-76
2022/01/29 08:22:47;;;;;;;0.00;0.00;;;;;14.60;100384.00;;;;5069375;28;20071;-76
2022/01/29 08:25:17;;;;;;;0.00;0.00;;;;;14.60;100391.00;;;;5069460;28;20048;-76
2022/01/29 08:27:49;;;;;;;0.00;0.00;;;;;14.60;100417.00;;;;5069660;28;20393;-76
2022/01/29 08:30:19;;;;;;;;;;;;;14.60;100405.00;;;;5069890;28;20036;-76
2022/01/29 08:32:48;;;;;;;0.00;0.00;;;;;14.60;100399.00;;;;5069522;28;19932;-76
2022/01/29 08:35:17;;;;;;;0.00;0.00;;;;;14.60;100411.00;;;;5070171;28;20044;-75
2022/01/29 08:37:47;;;;;;;0.00;0.00;;;;;14.50;100401.00;;;;5069276;28;20060;-76
2022/01/29 08:40:19;;;;;;;0.00;0.00;;;;;14.50;100408.00;;;;5069173;28;20503;-76
2022/01/29 08:42:49;;;;;;;0.00;0.00;;;;;14.50;100408.00;;;;5069886;28;20640;-76
2022/01/29 08:45:19;;;;;;;0.00;0.00;;;;;14.60;100411.00;;;;5069608;28;20040;-76
2022/01/29 08:47:49;;;;;;;0.00;0.00;;;;;14.60;100409.00;;;;5069777;28;20094;-75
2022/01/29 08:50:18;;;;;;;0.00;0.00;;;;;14.60;100411.00;;;;5069684;28;20059;-76
2022/01/29 08:52:48;;;;;;;0.00;0.00;;;;;14.50;100408.00;;;;5068740;28;20048;-76
2022/01/29 08:55:17;;;;;;;0.00;0.00;;;;;14.50;100424.00;;;;5069533;28;20048;-76
2022/01/29 08:57:47;;;;;;;0.00;0.00;;;;;14.60;100420.00;;;;5068802;28;20086;-76
2022/01/29 09:00:17;;;;;;;0.00;0.00;;;;;14.70;100421.00;;;;5069294;28;20084;-76
2022/01/29 09:02:46;;;;;;;0.00;0.00;;;;;14.70;100423.00;;;;5068793;28;20064;-76
2022/01/29 09:05:17;;;;;;;0.00;0.00;;;;;14.70;100432.00;;;;5069086;28;20052;-76
2022/01/29 09:07:47;;;;;;;0.00;0.00;;;;;14.70;100439.00;;;;5068687;28;20065;-77
2022/01/29 09:10:17;;;;;;;0.00;0.00;;;;;14.70;100419.00;;;;5069290;28;20062;-76
2022/01/29 09:12:46;;;;;;;0.00;0.00;;;;;14.80;100431.00;;;;5067475;28;20095;-76
2022/01/29 09:15:16;;;;;;;0.00;0.00;;;;;14.80;100435.00;;;;5068321;28;20048;-76
2022/01/29 09:17:45;;;;;;;0.00;0.00;;;;;14.90;100444.00;;;;5067557;28;20049;-76
2022/01/29 09:20:15;;;;;;;0.00;0.00;;;;;14.90;100426.00;;;;5068528;28;20063;-76
2022/01/29 09:22:45;;;;;;;0.00;0.00;;;;;15.00;100448.00;;;;5068788;28;20052;-75
2022/01/29 09:25:16;;;;;;;0.00;0.00;;;;;15.10;100456.00;;;;5068576;28;20045;-76
2022/01/29 09:27:45;;;;;;;0.00;0.00;;;;;15.10;100442.00;;;;5068358;28;20052;-75
2022/01/29 09:30:14;;;;;;;0.00;0.00;;;;;15.20;100454.00;;;;5068754;28;20040;-75
2022/01/29 09:32:50;;;;;;;0.00;0.00;;;;;15.30;100444.00;;;;5068160;28;20512;-77
2022/01/29 09:35:19;;;;;;;0.00;0.00;;;;;15.40;100446.00;;;;5068761;28;20044;-78
2022/01/29 09:37:49;;;;;;;0.00;0.00;;;;;15.50;100446.00;;;;5068091;28;20044;-76
2022/01/29 09:40:18;;;;;;;0.00;0.00;;;;;15.60;100459.00;;;;5068670;28;20044;-76
2022/01/29 09:42:50;;;;;;;0.00;0.00;;;;;15.70;100461.00;;;;5067693;28;20052;-77
2022/01/29 09:45:23;;;;;;;0.00;0.00;;;;;15.80;100461.00;;;;5068453;28;20100;-76
2022/01/29 09:48:01;;;;;;;0.00;0.00;;;;;15.90;100450.00;;;;5068588;28;20044;-76
2022/01/29 09:50:36;;;;;;;0.00;0.00;;;;;15.90;100467.00;;;;5068206;28;20119;-76
2022/01/29 09:53:07;;;;;;;0.00;0.00;;;;;16.10;100453.00;;;;5068334;28;20040;-76
2022/01/29 09:55:37;;;;;;;0.00;0.00;;;;;16.20;100448.00;;;;5067940;28;20047;-77
2022/01/29 09:58:06;;;;;;;0.00;0.00;;;;;16.30;100467.00;;;;5068073;28;20053;-76
2022/01/29 10:00:37;;;;;;;0.00;0.00;;;;;16.70;100462.00;;;;5067613;28;20507;-76
2022/01/29 10:03:13;;;;;;;0.00;0.00;;;;;16.80;100469.00;;;;5067754;28;20418;-77
2022/01/29 10:05:46;;;;;;;0.00;0.00;;;;;17.00;100444.00;;;;5067860;28;20040;-76
2022/01/29 10:08:16;;;;;;;0.00;0.00;;;;;17.20;100459.00;;;;5067774;28;20921;-76
2022/01/29 10:10:59;;;;;;;0.00;0.00;;;;;17.40;100451.00;;;;5068577;28;20507;-75
2022/01/29 10:13:38;;;;;;;0.00;0.00;;;;;17.60;100450.00;;;;5067842;28;20581;-77
2022/01/29 10:16:10;;;;;;;0.00;0.00;;;;;17.80;100450.00;;;;5067420;28;20033;-76
2022/01/29 10:18:41;;;;;;;0.00;0.00;;;;;18.30;100393.00;;;;5067747;28;20040;-77
2022/01/29 10:21:32;;;;;;;0.00;0.00;;;;;19.60;100415.00;;;;5067259;28;20049;-77
2022/01/29 10:24:09;;;;;;;0.00;0.00;;;;;18.90;100456.00;;;;5067501;28;20059;-77
2022/01/29 10:26:40;;;;;;;0.00;0.00;;;;;18.80;100454.00;;;;5066689;28;20083;-77
2022/01/29 10:29:26;;;;;;;0.00;0.00;;;;;18.70;100463.00;;;;5067757;28;20041;-77
2022/01/29 10:31:57;;;;;;;0.00;0.00;;;;;18.70;100466.00;;;;5067439;28;20779;-77
2022/01/29 10:34:32;;;;;;;0.00;0.00;;;;;19.00;100464.00;;;;5067632;28;20036;-76
2022/01/29 10:37:22;;;;;;;0.00;0.00;;;;;21.10;100341.00;;;;5067441;28;20041;-76
2022/01/29 10:40:15;;;;;;;0.00;0.00;;;;;26.20;100263.00;;;;5067396;28;20546;-76
2022/01/29 10:42:45;;;;;;;0.00;0.00;;;;;28.20;100254.00;;;;5067301;28;20098;-77
2022/01/29 10:45:15;;;;;;;0.00;0.00;;;;;29.40;100232.00;;;;5067642;28;20036;-77
2022/01/29 10:47:55;;;;;;;0.00;0.00;;;;;30.20;100256.00;;;;5067288;28;20384;-77
2022/01/29 10:50:26;;;;;;;0.00;0.00;;;;;30.60;100244.00;;;;5066930;28;20040;-77
2022/01/29 10:52:56;;;;;;;0.00;0.00;;;;;31.00;100231.00;;;;5067249;28;20044;-77
2022/01/29 10:55:25;;;;;;;0.00;0.00;;;;;31.50;100250.00;;;;5066858;28;20040;-77
2022/01/29 10:57:55;;;;;;;0.00;0.00;;;;;31.80;100257.00;;;;5066701;28;20044;-77
2022/01/29 11:00:31;;;;;;;0.00;0.00;;;;;30.80;100300.00;;;;5066754;28;20056;-78
2022/01/29 11:03:01;;;;;;;0.00;0.00;;;;;31.30;100269.00;;;;5066471;28;20044;-75
2022/01/29 11:05:33;;;;;;;0.00;0.00;;;;;31.60;100271.00;;;;5067025;28;20496;-79
2022/01/29 11:08:03;;;;;;;0.00;0.00;;;;;30.90;100349.00;;;;5066489;28;20056;-76
2022/01/29 11:10:34;;;;;;;0.00;0.00;;;;;28.20;100378.00;;;;5065551;28;20090;-77
2022/01/29 11:13:10;;;;;;;0.00;0.00;;;;;29.50;100296.00;;;;5066723;28;20048;-77
2022/01/29 11:15:40;;;;;;;0.00;0.00;;;;;32.10;100272.00;;;;5083055;28;20093;-77
2022/01/29 11:18:10;;;;;;;0.00;0.00;;;;;33.10;100272.00;;;;5085670;28;20526;-80
2022/01/29 11:20:40;;;;;;;0.00;0.00;;;;;33.60;100268.00;;;;5086287;28;20052;-77
2022/01/29 11:23:09;;;;;;;0.00;0.00;;;;;34.10;100273.00;;;;5086275;28;20056;-76
2022/01/29 11:25:39;;;;;;;0.00;0.00;;;;;33.90;100269.00;;;;5087046;28;20390;-77
2022/01/29 11:28:16;;;;;;;0.00;0.00;;;;;34.40;100281.00;;;;5085075;28;20051;-79
2022/01/29 11:31:06;;;;;;;0.00;0.00;;;;;34.00;100265.00;;;;5086276;28;20568;-78
2022/01/29 11:33:59;;;;;;;0.00;0.00;;;;;33.30;100257.00;;;;5085153;28;20032;-78
2022/01/29 11:36:47;;;;;;;0.00;0.00;;;;;33.60;100256.00;;;;5074640;28;20056;-78
2022/01/29 11:39:22;;;;;;;0.00;0.00;;;;;34.20;100240.00;;;;5081592;28;20514;-77
2022/01/29 11:42:15;;;;;;;0.00;0.00;;;;;34.40;100247.00;;;;5083620;28;20044;-77
2022/01/29 11:44:45;;;;;;;0.00;0.00;;;;;33.70;100237.00;;;;5077233;28;20098;-78
2022/01/29 11:47:43;;;;;;;0.00;0.00;;;;;32.50;100241.00;;;;5086918;28;20127;-79
2022/01/29 11:50:19;;;;;;;0.00;0.00;;;;;32.00;100244.00;;;;5076910;28;20052;-82
2022/01/29 11:53:03;;;;;;;0.00;0.00;;;;;31.60;100238.00;;;;5087257;28;20036;-77
2022/01/29 11:55:51;;;;;;;0.40;0.20;;;;;31.20;100239.00;;;;5085947;28;20418;-79
2022/01/29 11:58:26;;;;;;;0.00;0.00;;;;;30.90;100252.00;;;;5085690;28;20059;-78
2022/01/29 12:00:58;;;;;;;0.55;0.10;;;;;30.60;100254.00;;;;5086705;28;20048;-78
2022/01/29 12:11:38;;;;;;;0.00;0.00;;;;;29.10;100400.00;;;;5085263;28;20083;-76
2022/01/29 12:14:14;;;;;;;0.00;0.00;;;;;28.60;100410.00;;;;5086165;28;20043;-77
2022/01/29 12:16:59;;;;;;;0.00;0.00;;;;;28.80;100413.00;;;;5085204;28;20123;-79
2022/01/29 12:19:40;;;;;;;0.55;0.10;;;;;28.00;100408.00;;;;5086658;28;20126;-78
2022/01/29 12:22:21;;;;;;;0.00;0.00;;;;;27.90;100394.00;;;;5085944;28;20083;-78
2022/01/29 12:24:59;;;;;;;0.00;0.00;;;;;28.30;100414.00;;;;5086087;28;20055;-79
2022/01/29 12:27:56;;;;;;;0.00;0.00;;;;;28.60;100414.00;;;;5085948;28;20044;-76
2022/01/29 12:30:29;;;;;;;0.00;0.00;;;;;28.30;100417.00;;;;5085987;28;20158;-80
2022/01/29 12:33:19;;;;;;;0.00;0.00;;;;;28.00;100402.00;;;;5086133;28;20040;-79
2022/01/29 12:35:58;;;;;;;0.70;0.32;;;;;27.90;100398.00;;;;5085559;28;20521;-77
2022/01/29 12:38:35;;;;;;;0.00;0.00;;;;;26.70;100502.00;;;;5086796;28;20040;-77
2022/01/29 12:41:28;;;;;;;0.00;0.00;;;;;26.00;100385.00;;;;5086073;28;20120;-79
2022/01/29 12:44:04;;;;;;;0.00;0.00;;;;;27.50;100386.00;;;;5085892;28;20048;-78
2022/01/29 12:46:34;;;;;;;0.00;0.00;;;;;28.80;100469.00;;;;5087033;28;20044;-78
2022/01/29 12:49:12;;;;;;;0.23;0.10;;;;;28.90;100483.00;;;;5090393;28;20028;-80
2022/01/29 12:51:55;;;;;;;0.00;0.00;;;;;28.40;100384.00;;;;5089586;28;20110;-77